Terminal Aerodrome Forecast
Issued by NWS

Home | Current Version | Previous Version | Graphics & Text | Print | Product List | Glossary On
Versions: 1 2 3 4 5 6 7 8 9 10 11 12 13 14 15 16 17
047
FTUS43 KICT 200257 AAA
TAFSLN
TAF AMD
KSLN 200257Z 2003/2024 36017KT P6SM OVC008
      TEMPO 2003/2006 SCT010 OVC015
     FM200600 35017KT P6SM BKN013 OVC018
     FM201400 30017G22KT P6SM OVC022=

USA.gov is the U.S. government's official web portal to all federal, state and local government web resources and services.